Dadeville, Alabama
Current Conditions -  °F | °C
As of 8:35 PM on Sunday 23 Nov 2014 (Local Time) from KALX Reporting Station
Overcast Overcast  
Wind Chill: 63°   Ceiling: 1200
Heat Index: 63°   Visibility: 10mi
Dew Point: 56°   Wind: 7mph
Humidity: 80%   Direction: 200°SSW
Pressure: 29.73"   Gusts: 18mph
Location:  32.83°N, 85.76°W
Report Text: KALX 240235Z AUTO 20006G16KT 10SM OVC012 17/14 A2973 RMK AO2 T01700136
Loading
Personal Weather Stations






























Interactive Weather Map New forecast layout! Learn more

10-Day Weather Forecast

Advertisements
Track Severe Weather on mobile